Time;durP1;ratioP1;P1;durP2;ratioP2;P2;SDS_P1;SDS_P2;PMS_P1;PMS_P2;Temp;Humidity;BMP_temperature;BMP_pressure;BME280_temperature;BME280_humidity;BME280_pressure;Samples;Min_cycle;Max_cycle;Signal;HPM_P1;HPM_P2
2022/01/15 00:01:03;;;;;;;;;86.25;63.75;;;;;8.53;57.47;102642.72;5059678;28;45226;-64
2022/01/15 00:03:30;;;;;;;;;84.25;67.75;;;;;8.53;57.23;102633.88;5059770;28;45286;-63
2022/01/15 00:05:56;;;;;;;;;85.00;65.25;;;;;8.52;57.59;102634.78;5059455;28;45499;-63
2022/01/15 00:08:21;;;;;;;;;80.00;63.00;;;;;8.51;57.89;102628.53;5065875;28;45421;-63
2022/01/15 00:10:47;;;;;;;;;84.50;68.25;;;;;8.46;57.61;102624.94;5068447;28;45373;-63
2022/01/15 00:13:30;;;;;;;;;85.25;68.25;;;;;8.53;57.57;102636.53;5068647;28;45382;-63
2022/01/15 00:16:09;;;;;;;;;83.50;65.75;;;;;8.52;57.76;102630.31;5064766;28;45602;-63
2022/01/15 00:19:00;;;;;;;;;86.25;68.25;;;;;8.52;57.52;102625.00;5068843;28;46133;-63
2022/01/15 00:21:26;;;;;;;;;87.50;73.00;;;;;8.43;57.80;102610.75;5065599;28;45516;-63
2022/01/15 00:23:52;;;;;;;;;86.00;69.50;;;;;8.49;57.69;102626.75;5069398;28;46737;-64
2022/01/15 00:26:17;;;;;;;;;89.75;73.75;;;;;8.50;57.72;102623.19;5070745;28;45503;-63
2022/01/15 00:28:42;;;;;;;;;83.00;67.00;;;;;8.50;57.55;102618.78;5067204;28;47304;-64
2022/01/15 00:31:08;;;;;;;;;88.25;68.25;;;;;8.39;57.51;102607.13;5074257;28;45421;-63
2022/01/15 00:33:33;;;;;;;;;88.75;77.75;;;;;8.42;57.60;102606.25;5067534;28;45472;-64
2022/01/15 00:35:59;;;;;;;;;88.00;68.25;;;;;8.49;57.40;102622.31;5063814;28;45476;-64
2022/01/15 00:38:24;;;;;;;;;82.00;65.50;;;;;8.47;57.64;102616.09;5075727;28;46085;-64
2022/01/15 00:40:50;;;;;;;;;95.50;76.50;;;;;8.48;57.63;102619.66;5066897;28;46647;-63
2022/01/15 00:43:15;;;;;;;;;92.00;78.75;;;;;8.47;57.54;102613.44;5071902;28;45476;-63
2022/01/15 00:45:40;;;;;;;;;95.00;84.75;;;;;8.43;57.49;102602.75;5075931;28;45795;-63
2022/01/15 00:48:06;;;;;;;;;89.50;79.50;;;;;8.44;57.39;102604.56;5076919;28;45286;-63
2022/01/15 00:50:31;;;;;;;;;92.50;77.75;;;;;8.44;57.63;102601.88;5071582;28;45135;-63
2022/01/15 00:52:56;;;;;;;;;92.25;83.00;;;;;8.39;57.28;102601.81;5070186;28;45873;-63
2022/01/15 00:55:22;;;;;;;;;97.50;90.25;;;;;8.33;57.38;102601.78;5072872;28;45370;-63
2022/01/15 00:57:47;;;;;;;;;102.00;91.75;;;;;8.34;57.43;102603.56;5070570;28;45676;-63
2022/01/15 01:00:18;;;;;;;;;102.75;90.75;;;;;8.29;57.43;102607.97;5072582;28;45175;-63
2022/01/15 01:02:44;;;;;;;;;93.50;80.75;;;;;8.27;57.40;102605.28;5073893;28;45358;-63
2022/01/15 01:05:10;;;;;;;;;104.25;92.00;;;;;8.21;57.42;102591.06;5075104;28;45604;-63
2022/01/15 01:07:35;;;;;;;;;93.75;84.75;;;;;8.09;57.31;102579.44;5071676;28;46179;-63
2022/01/15 01:12:57;;;;;;;;;99.00;91.25;;;;;8.11;57.57;102596.28;5076857;28;45435;-63
2022/01/15 01:23:33;;;;;;;;;99.00;88.00;;;;;7.95;57.60;102567.78;5070426;28;45462;-63
2022/01/15 01:26:08;;;;;;;;;91.25;79.50;;;;;7.98;57.43;102579.38;5067795;28;45426;-63
2022/01/15 01:28:44;;;;;;;;;100.25;88.00;;;;;7.94;57.66;102566.91;5062458;28;46266;-63
2022/01/15 01:31:22;;;;;;;;;96.25;86.25;;;;;7.97;57.67;102566.94;5062118;28;45355;-63
2022/01/15 01:33:51;;;;;;;;;97.25;83.00;;;;;7.98;57.38;102562.50;5062165;28;45193;-63
2022/01/15 01:38:55;;;;;;;;;93.00;84.00;;;;;7.95;57.42;102554.50;5071652;28;46131;-64
2022/01/15 01:41:22;;;;;;;;;96.50;84.75;;;;;7.94;57.26;102558.06;5071797;28;45425;-64
2022/01/15 01:43:55;;;;;;;;;95.50;83.00;;;;;7.93;57.39;102553.59;5072201;28;45521;-64
2022/01/15 01:48:51;;;;;;;;;93.50;81.25;;;;;7.96;57.43;102564.25;5073306;28;45240;-64
2022/01/15 01:51:31;;;;;;;;;92.00;80.25;;;;;7.92;57.43;102558.03;5072432;28;45808;-64
2022/01/15 01:53:59;;;;;;;;;96.00;87.25;;;;;7.94;57.45;102558.94;5076892;28;45461;-63
2022/01/15 01:56:25;;;;;;;;;93.00;79.25;;;;;7.95;57.54;102562.47;5067627;28;45476;-64
2022/01/15 01:58:50;;;;;;;;;95.00;84.50;;;;;7.93;57.26;102554.47;5074504;28;46300;-64
2022/01/15 02:01:16;;;;;;;;;92.25;77.75;;;;;7.92;57.65;102560.69;5068040;28;45513;-64
2022/01/15 02:03:42;;;;;;;;;94.75;81.50;;;;;7.84;57.54;102541.13;5061961;28;45354;-64
2022/01/15 02:06:07;;;;;;;;;90.75;78.00;;;;;7.78;57.61;102528.69;5061415;28;45290;-64
2022/01/15 02:08:35;;;;;;;;;100.75;84.25;;;;;7.76;57.49;102541.06;5061936;28;45361;-64
2022/01/15 02:11:05;;;;;;;;;94.25;78.25;;;;;7.73;57.59;102537.50;5061422;28;45447;-64
2022/01/15 02:13:32;;;;;;;;;93.75;78.25;;;;;7.66;57.74;102512.63;5061784;28;45329;-64
2022/01/15 02:15:59;;;;;;;;;89.00;72.00;;;;;7.70;57.99;102529.50;5061678;28;45386;-64
2022/01/15 02:18:26;;;;;;;;;91.75;78.00;;;;;7.68;57.51;102521.50;5070906;28;45570;-64
2022/01/15 02:23:44;;;;;;;;;94.25;80.00;;;;;7.62;57.86;102524.13;5060494;28;45338;-64
2022/01/15 02:26:16;;;;;;;;;94.50;81.25;;;;;7.68;57.86;102533.91;5076951;28;46142;-64
2022/01/15 02:28:45;;;;;;;;;91.00;76.75;;;;;7.64;57.65;102529.47;5062919;28;47638;-64
2022/01/15 02:31:13;;;;;;;;;94.25;79.75;;;;;7.64;57.64;102530.34;5071055;28;45462;-64
2022/01/15 02:33:40;;;;;;;;;94.50;80.25;;;;;7.61;58.00;102531.19;5067913;28;45235;-64
2022/01/15 02:36:08;;;;;;;;;74.75;59.25;;;;;7.55;57.87;102530.25;5070651;28;45441;-64
2022/01/15 02:38:36;;;;;;;;;90.00;73.75;;;;;7.55;57.77;102530.25;5069075;28;45337;-64
2022/01/15 02:41:01;;;;;;;;;90.75;75.00;;;;;7.51;57.67;102525.78;5068950;28;45521;-63
2022/01/15 02:43:32;;;;;;;;;91.00;76.50;;;;;7.54;57.71;102529.38;5066555;28;45382;-64
2022/01/15 02:46:08;;;;;;;;;90.50;72.50;;;;;7.54;57.91;102529.38;5072066;28;45298;-64
2022/01/15 02:48:36;;;;;;;;;89.00;73.25;;;;;7.55;58.06;102527.59;5074249;28;46338;-64
2022/01/15 02:51:01;;;;;;;;;89.75;75.00;;;;;7.52;58.07;102517.84;5070671;27;45849;-64
2022/01/15 02:53:27;;;;;;;;;90.50;78.50;;;;;7.56;57.95;102516.97;5069769;28;45165;-64
2022/01/15 02:55:54;;;;;;;;;93.50;75.50;;;;;7.55;58.07;102506.31;5074959;28;45321;-64
2022/01/15 02:58:22;;;;;;;;;91.75;74.50;;;;;7.59;58.03;102510.81;5068985;28;46844;-64
2022/01/15 03:00:49;;;;;;;;;86.00;71.50;;;;;7.59;58.07;102506.38;5068638;28;45405;-64
2022/01/15 03:03:15;;;;;;;;;92.00;74.25;;;;;7.58;57.35;102507.28;5073183;28;45240;-64
2022/01/15 03:05:40;;;;;;;;;89.75;77.75;;;;;7.52;58.49;102479.75;5069485;28;45456;-64
2022/01/15 03:08:06;;;;;;;;;91.25;76.50;;;;;7.59;58.19;102490.44;5069234;28;46099;-64
2022/01/15 03:10:32;;;;;;;;;90.50;73.50;;;;;7.60;57.51;102494.88;5068964;28;45903;-64
2022/01/15 03:12:58;;;;;;;;;89.00;72.25;;;;;7.53;58.00;102477.06;5073368;28;45244;-64
2022/01/15 03:15:24;;;;;;;;;94.75;81.75;;;;;7.61;58.22;102495.75;5072693;28;45340;-64
2022/01/15 03:17:50;;;;;;;;;93.00;78.25;;;;;7.61;58.15;102491.31;5071606;28;46189;-64
2022/01/15 03:20:18;;;;;;;;;86.75;70.25;;;;;7.55;58.07;102474.44;5072024;28;45239;-64
2022/01/15 03:22:44;;;;;;;;;89.50;74.25;;;;;7.61;57.78;102488.66;5073990;28;45355;-64
2022/01/15 03:25:10;;;;;;;;;93.25;79.75;;;;;7.61;57.82;102493.09;5068372;28;45694;-64
2022/01/15 03:27:36;;;;;;;;;91.50;75.50;;;;;7.61;57.63;102490.44;5071084;28;45643;-64
2022/01/15 03:30:07;;;;;;;;;93.75;80.75;;;;;7.62;58.15;102494.88;5069118;28;45441;-64
2022/01/15 03:32:32;;;;;;;;;94.00;84.00;;;;;7.57;58.03;102486.00;5071697;28;45533;-63
2022/01/15 03:34:58;;;;;;;;;90.25;73.75;;;;;7.56;58.02;102469.13;5069888;28;45304;-64
2022/01/15 03:37:23;;;;;;;;;92.25;80.00;;;;;7.54;58.00;102459.38;5071508;28;46160;-64
2022/01/15 03:39:49;;;;;;;;;91.75;79.00;;;;;7.55;57.53;102458.50;5069314;28;45520;-64
2022/01/15 03:42:14;;;;;;;;;93.75;77.25;;;;;7.60;57.98;102465.63;5064712;28;45425;-64
2022/01/15 03:44:41;;;;;;;;;94.50;83.00;;;;;7.58;57.92;102463.84;5072485;28;45385;-63
2022/01/15 03:47:07;;;;;;;;;92.50;76.75;;;;;7.59;57.97;102460.31;5074995;28;46144;-64
2022/01/15 03:49:33;;;;;;;;;91.25;78.75;;;;;7.60;57.72;102457.66;5067659;28;45332;-63
2022/01/15 03:51:58;;;;;;;;;93.00;79.00;;;;;7.56;57.79;102449.66;5071367;28;45244;-64
2022/01/15 03:54:23;;;;;;;;;93.25;79.00;;;;;7.61;57.70;102454.09;5069139;28;45480;-64
2022/01/15 03:56:49;;;;;;;;;95.67;84.67;;;;;7.62;57.85;102452.38;5071722;28;45331;-64
2022/01/15 03:59:14;;;;;;;;;100.75;92.50;;;;;7.61;57.65;102450.56;5071697;28;45267;-64
2022/01/15 04:01:39;;;;;;;;;95.33;86.33;;;;;7.58;57.76;102446.16;5070199;28;45512;-64
2022/01/15 04:04:05;;;;;;;;;98.25;89.75;;;;;7.53;57.66;102431.91;5071553;28;45512;-64
2022/01/15 04:06:30;;;;;;;;;98.00;91.00;;;;;7.54;58.07;102428.38;5075399;28;46098;-64
2022/01/15 04:08:56;;;;;;;;;98.00;85.75;;;;;7.57;57.77;102436.38;5067806;28;45128;-64
2022/01/15 04:11:21;;;;;;;;;95.50;84.50;;;;;7.49;57.99;102418.59;5074774;28;45591;-64
2022/01/15 04:13:46;;;;;;;;;96.75;88.75;;;;;7.58;57.65;102429.28;5070878;28;45436;-64
2022/01/15 04:16:11;;;;;;;;;106.25;91.50;;;;;7.58;58.04;102426.63;5067192;28;45414;-64
2022/01/15 04:18:40;;;;;;;;;104.75;91.75;;;;;7.52;58.09;102418.63;5067913;28;45358;-64
2022/01/15 04:21:09;;;;;;;;;105.50;94.50;;;;;7.52;58.17;102419.50;5063585;28;45311;-64
2022/01/15 04:23:34;;;;;;;;;101.00;88.25;;;;;7.47;57.81;102417.69;5069979;28;45578;-64
2022/01/15 04:25:59;;;;;;;;;110.25;97.50;;;;;7.49;57.91;102424.81;5069609;28;46134;-64
2022/01/15 04:28:27;;;;;;;;;98.00;93.00;;;;;7.50;57.80;102417.72;5070798;28;45232;-64
2022/01/15 04:30:52;;;;;;;;;97.75;90.00;;;;;7.52;58.10;102419.50;5074792;28;45355;-64
2022/01/15 04:33:17;;;;;;;;;113.25;98.50;;;;;7.49;58.22;102407.97;5069584;28;45654;-64
2022/01/15 04:35:43;;;;;;;;;112.25;99.00;;;;;7.53;58.13;102423.06;5071547;28;45333;-63
2022/01/15 04:38:11;;;;;;;;;108.50;97.00;;;;;7.51;58.02;102411.53;5068045;28;45227;-64
2022/01/15 04:40:37;;;;;;;;;118.50;103.75;;;;;7.53;58.08;102412.41;5068523;28;45234;-63
2022/01/15 04:43:02;;;;;;;;;111.75;103.50;;;;;7.54;58.15;102411.56;5068919;28;45247;-64
2022/01/15 04:45:27;;;;;;;;;107.25;99.00;;;;;7.53;58.44;102407.09;5070715;28;46126;-64
2022/01/15 04:47:53;;;;;;;;;126.00;115.00;;;;;7.52;58.05;102406.22;5068746;28;45173;-64
2022/01/15 04:50:20;;;;;;;;;125.00;109.67;;;;;7.54;58.10;102408.91;5068544;28;45572;-64
2022/01/15 04:52:46;;;;;;;;;126.25;114.75;;;;;7.53;58.16;102407.97;5059295;28;45266;-64
2022/01/15 04:55:13;;;;;;;;;119.50;111.00;;;;;7.51;58.06;102407.09;5062928;28;46223;-64
2022/01/15 04:57:39;;;;;;;;;121.75;111.25;;;;;7.51;58.14;102403.56;5063087;27;45324;-64
2022/01/15 05:00:08;;;;;;;;;98.50;88.00;;;;;7.52;58.19;102403.56;5059385;28;45414;-64
2022/01/15 05:02:34;;;;;;;;;120.00;111.00;;;;;7.44;58.18;102388.47;5059568;28;45203;-64
2022/01/15 05:04:59;;;;;;;;;123.00;112.25;;;;;7.42;58.41;102389.31;5058825;28;46104;-64
2022/01/15 05:07:25;;;;;;;;;124.25;113.00;;;;;7.52;58.46;102408.00;5059002;28;45353;-64
2022/01/15 05:09:50;;;;;;;;;129.50;107.50;;;;;7.48;58.28;102399.09;5059354;28;45327;-64
2022/01/15 05:12:31;;;;;;;;;118.50;111.00;;;;;7.47;58.19;102393.78;5059005;28;45299;-64
2022/01/15 05:14:56;;;;;;;;;125.75;110.00;;;;;7.43;58.05;102395.50;5058812;28;46051;-64
2022/01/15 05:17:22;;;;;;;;;118.50;104.75;;;;;7.45;57.73;102393.78;5059408;28;45228;-64
2022/01/15 05:19:47;;;;;;;;;128.50;118.50;;;;;7.47;57.98;102400.00;5072864;28;45203;-64
2022/01/15 05:22:13;;;;;;;;;126.25;117.00;;;;;7.46;58.24;102392.88;5068429;28;45270;-64
2022/01/15 05:24:38;;;;;;;;;118.75;110.75;;;;;7.46;58.01;102387.56;5069279;28;45353;-64
2022/01/15 05:27:03;;;;;;;;;124.50;109.75;;;;;7.44;57.90;102388.47;5069334;28;45173;-64
2022/01/15 05:29:29;;;;;;;;;119.00;110.00;;;;;7.46;58.10;102394.66;5077930;28;45207;-64
2022/01/15 05:31:54;;;;;;;;;114.25;104.00;;;;;7.42;57.99;102397.28;5069864;28;45338;-64
2022/01/15 05:34:20;;;;;;;;;105.50;92.50;;;;;7.37;58.17;102384.88;5063181;28;45378;-64
2022/01/15 05:36:46;;;;;;;;;109.75;97.25;;;;;7.44;57.95;102393.78;5073136;28;45437;-64
2022/01/15 05:39:12;;;;;;;;;90.75;76.25;;;;;7.42;58.30;102385.78;5075355;28;45718;-64
2022/01/15 05:41:37;;;;;;;;;83.75;65.25;;;;;7.32;58.50;102384.81;5065105;28;45616;-64
2022/01/15 05:44:03;;;;;;;;;86.50;66.50;;;;;7.29;57.97;102378.59;5073307;28;45441;-64
2022/01/15 05:46:30;;;;;;;;;79.50;64.00;;;;;7.29;57.93;102398.09;5070507;28;45528;-64
2022/01/15 05:48:56;;;;;;;;;79.50;62.50;;;;;7.19;57.80;102383.84;5073023;28;45519;-64
2022/01/15 05:51:22;;;;;;;;;80.00;63.00;;;;;7.18;57.58;102391.78;5072260;28;45410;-63
2022/01/15 05:53:47;;;;;;;;;80.50;60.50;;;;;7.15;57.75;102400.63;5071729;28;45936;-64
2022/01/15 05:56:12;;;;;;;;;77.75;62.25;;;;;7.12;58.03;102399.72;5073854;28;45317;-64
2022/01/15 05:58:38;;;;;;;;;80.00;63.50;;;;;7.04;58.13;102397.88;5076639;28;45308;-64
2022/01/15 06:01:03;;;;;;;;;74.50;59.00;;;;;7.05;57.74;102406.75;5068725;28;45301;-64
2022/01/15 06:03:29;;;;;;;;;76.25;59.75;;;;;7.08;58.03;102411.19;5074506;28;45836;-64
2022/01/15 06:05:54;;;;;;;;;78.00;61.50;;;;;7.09;57.78;102405.00;5071864;28;45286;-63
2022/01/15 06:08:19;;;;;;;;;79.75;62.25;;;;;7.04;58.18;102400.53;5072898;28;45367;-64
2022/01/15 06:10:45;;;;;;;;;77.75;63.00;;;;;7.04;57.88;102411.16;5069297;28;45214;-64
2022/01/15 06:13:10;;;;;;;;;77.25;61.50;;;;;7.08;57.64;102414.72;5072858;28;46183;-64
2022/01/15 06:15:35;;;;;;;;;79.75;64.00;;;;;7.00;57.67;102401.38;5072417;28;45477;-64
2022/01/15 06:18:01;;;;;;;;;78.75;62.50;;;;;6.99;57.84;102396.06;5067888;28;45454;-64
2022/01/15 06:20:26;;;;;;;;;79.00;58.75;;;;;7.00;57.79;102404.03;5077665;28;45390;-64
2022/01/15 06:22:52;;;;;;;;;79.25;63.25;;;;;7.04;58.20;102404.97;5061527;28;46263;-64
2022/01/15 06:25:17;;;;;;;;;82.75;63.00;;;;;7.05;58.42;102399.66;5061167;28;45381;-64
2022/01/15 06:27:42;;;;;;;;;76.00;59.25;;;;;7.04;58.21;102400.53;5061564;28;45308;-64
2022/01/15 06:30:08;;;;;;;;;80.25;63.25;;;;;6.98;57.98;102386.31;5061253;28;45411;-64
2022/01/15 06:32:36;;;;;;;;;79.75;63.50;;;;;7.06;57.88;102395.22;5061184;28;46309;-64
2022/01/15 06:35:04;;;;;;;;;78.50;64.00;;;;;7.02;58.29;102394.31;5060667;28;45260;-64
2022/01/15 06:37:29;;;;;;;;;78.00;61.25;;;;;7.03;58.07;102390.81;5070801;28;45216;-64
2022/01/15 06:39:55;;;;;;;;;76.50;61.50;;;;;7.05;57.90;102390.81;5065078;28;45244;-64
2022/01/15 06:42:20;;;;;;;;;79.25;63.25;;;;;7.04;57.91;102384.59;5070646;28;46204;-64
2022/01/15 06:44:45;;;;;;;;;78.00;62.75;;;;;6.93;57.65;102364.13;5064860;28;45224;-64
2022/01/15 06:47:11;;;;;;;;;77.00;59.50;;;;;7.07;57.69;102397.03;5065686;28;45205;-64
2022/01/15 06:49:36;;;;;;;;;81.50;62.75;;;;;6.99;57.75;102381.00;5070455;28;45626;-64
2022/01/15 06:52:02;;;;;;;;;80.50;63.00;;;;;6.99;57.76;102378.34;5068764;28;45450;-63
2022/01/15 06:54:27;;;;;;;;;85.00;65.00;;;;;7.03;57.75;102381.91;5065422;28;45291;-64
2022/01/15 06:56:52;;;;;;;;;77.75;63.25;;;;;7.06;57.94;102381.97;5074396;28;45355;-64
2022/01/15 06:59:17;;;;;;;;;87.00;65.50;;;;;6.97;57.89;102365.97;5069032;28;45422;-64
2022/01/15 07:01:43;;;;;;;;;84.25;64.50;;;;;7.04;57.73;102376.63;5073340;28;46943;-64
2022/01/15 07:04:08;;;;;;;;;83.33;64.67;;;;;7.07;57.91;102373.13;5070631;28;45484;-64
2022/01/15 07:06:33;;;;;;;;;88.00;68.50;;;;;7.05;58.32;102373.09;5072194;28;45476;-64
2022/01/15 07:08:59;;;;;;;;;84.50;67.75;;;;;7.09;57.72;102367.81;5069370;28;45279;-63
2022/01/15 07:11:24;;;;;;;;;94.75;80.75;;;;;7.10;57.88;102366.94;5071887;28;45681;-64
2022/01/15 07:13:49;;;;;;;;;102.25;84.00;;;;;7.07;58.14;102357.19;5072380;28;45468;-64
2022/01/15 07:16:15;;;;;;;;;104.33;90.33;;;;;7.07;57.89;102357.19;5068786;28;45477;-64
2022/01/15 07:18:40;;;;;;;;;96.00;84.50;;;;;7.09;58.44;102359.88;5069684;28;45453;-64
2022/01/15 07:21:05;;;;;;;;;104.33;90.33;;;;;7.00;58.06;102347.38;5075255;28;46349;-64
2022/01/15 07:23:31;;;;;;;;;111.75;100.00;;;;;7.08;58.33;102361.59;5067830;28;45293;-64
2022/01/15 07:25:56;;;;;;;;;114.00;100.33;;;;;7.06;58.51;102352.75;5078854;28;45303;-64
2022/01/15 07:28:24;;;;;;;;;126.67;108.67;;;;;7.01;58.54;102344.75;5064558;28;45278;-64
2022/01/15 07:30:49;;;;;;;;;111.75;104.25;;;;;7.08;57.91;102363.38;5062742;28;46388;-64
2022/01/15 07:33:14;;;;;;;;;127.00;115.50;;;;;7.10;58.44;102361.63;5071966;28;45428;-64
2022/01/15 07:35:43;;;;;;;;;114.00;107.33;;;;;7.07;58.02;102362.50;5069184;28;45492;-63
2022/01/15 07:38:08;;;;;;;;;123.75;109.25;;;;;6.95;58.51;102330.53;5073597;28;45556;-64
2022/01/15 07:40:33;;;;;;;;;126.25;112.75;;;;;7.02;58.14;102343.00;5068103;28;46795;-64
2022/01/15 07:42:59;;;;;;;;;124.75;117.25;;;;;6.99;57.78;102337.66;5068236;28;45403;-64
2022/01/15 07:45:24;;;;;;;;;129.00;112.00;;;;;7.11;58.25;102355.44;5073314;28;45520;-64
2022/01/15 07:47:49;;;;;;;;;123.75;109.50;;;;;7.07;58.84;102351.88;5071807;28;45449;-64
2022/01/15 07:50:23;;;;;;;;;125.25;114.50;;;;;7.08;57.93;102353.63;5070779;28;46041;-64
2022/01/15 07:52:48;;;;;;;;;122.75;113.75;;;;;7.12;58.14;102355.47;5068482;28;45472;-64
2022/01/15 07:55:14;;;;;;;;;114.25;106.75;;;;;7.12;58.64;102352.81;5071281;28;45334;-64
2022/01/15 07:57:43;;;;;;;;;123.25;103.75;;;;;7.13;58.06;102356.34;5069532;28;45319;-64
2022/01/15 08:00:10;;;;;;;;;108.00;95.00;;;;;7.12;57.97;102349.28;5069293;28;45299;-64
2022/01/15 08:02:36;;;;;;;;;104.25;96.00;;;;;7.14;58.22;102359.00;5070890;28;45496;-64
2022/01/15 08:05:01;;;;;;;;;110.75;94.50;;;;;7.15;58.35;102362.53;5074229;28;45449;-64
2022/01/15 08:07:26;;;;;;;;;95.75;88.25;;;;;7.14;58.38;102353.69;5059685;28;45401;-63
2022/01/15 08:09:52;;;;;;;;;95.75;83.50;;;;;7.05;58.55;102338.59;5059724;28;45881;-64
2022/01/15 08:12:19;;;;;;;;;97.00;85.33;;;;;7.10;58.02;102343.03;5071897;28;45319;-64
2022/01/15 08:14:45;;;;;;;;;96.00;83.00;;;;;7.12;58.22;102342.19;5059882;28;45537;-64
2022/01/15 08:17:10;;;;;;;;;91.75;80.00;;;;;7.12;57.90;102343.97;5059594;28;45339;-64
2022/01/15 08:19:36;;;;;;;;;64.50;53.25;;;;;7.03;58.45;102335.03;5078786;28;45282;-64
2022/01/15 08:22:01;;;;;;;;;97.00;86.25;;;;;7.03;58.49;102334.13;5062499;28;45439;-64
2022/01/15 08:24:27;;;;;;;;;95.00;85.25;;;;;7.03;58.12;102339.44;5059754;28;45310;-64
2022/01/15 08:26:52;;;;;;;;;89.50;77.00;;;;;7.11;57.97;102340.38;5062695;28;45423;-64
2022/01/15 08:29:18;;;;;;;;;91.25;74.25;;;;;7.10;58.30;102348.34;5069150;28;45905;-64
2022/01/15 08:31:44;;;;;;;;;93.50;78.25;;;;;7.11;57.99;102345.69;5066495;28;45239;-64
2022/01/15 08:34:09;;;;;;;;;93.00;72.00;;;;;7.10;58.11;102346.59;5066812;28;45521;-64
2022/01/15 08:36:36;;;;;;;;;81.25;61.50;;;;;7.08;58.42;102343.03;5069962;28;45426;-64
2022/01/15 08:39:08;;;;;;;;;95.00;79.75;;;;;7.05;58.09;102341.25;5065435;28;47011;-67
2022/01/15 08:41:33;;;;;;;;;93.75;78.50;;;;;6.93;58.03;102316.34;5060529;28;46579;-68
2022/01/15 08:43:58;;;;;;;;;94.00;76.25;;;;;7.04;58.28;102350.06;5065860;28;45451;-68
2022/01/15 08:46:24;;;;;;;;;100.25;93.00;;;;;7.04;58.57;102346.53;5069851;28;45168;-68
2022/01/15 08:48:50;;;;;;;;;93.50;76.25;;;;;7.02;58.27;102343.88;5062058;28;46198;-68
2022/01/15 08:51:15;;;;;;;;;95.50;78.00;;;;;7.03;58.20;102339.44;5071917;28;45383;-68
2022/01/15 08:53:41;;;;;;;;;84.50;67.00;;;;;7.02;58.47;102341.22;5077362;28;45495;-67
2022/01/15 08:56:06;;;;;;;;;93.00;78.50;;;;;7.03;58.21;102347.41;5068913;28;45707;-68
2022/01/15 08:58:32;;;;;;;;;92.25;75.25;;;;;6.96;58.79;102341.16;5068045;28;46881;-68
2022/01/15 09:00:57;;;;;;;;;95.25;79.50;;;;;6.98;58.70;102351.78;5072974;28;45402;-67
2022/01/15 09:03:24;;;;;;;;;96.25;79.50;;;;;6.99;58.71;102361.53;5065954;28;45630;-68
2022/01/15 09:05:50;;;;;;;;;93.00;77.25;;;;;7.01;58.25;102363.31;5076101;28;45455;-67
2022/01/15 09:08:17;;;;;;;;;94.00;79.50;;;;;6.95;58.44;102351.75;5062549;28;46134;-68
2022/01/15 09:10:43;;;;;;;;;95.75;82.25;;;;;6.99;58.78;102358.91;5064673;28;45355;-67
2022/01/15 09:13:12;;;;;;;;;98.25;93.50;;;;;6.89;59.16;102352.59;5077308;27;45340;-67
2022/01/15 09:15:38;;;;;;;;;61.50;51.00;;;;;6.97;58.65;102369.50;5070363;27;45539;-67
2022/01/15 09:18:09;;;;;;;;;96.00;84.25;;;;;6.93;58.87;102357.06;5067122;28;45392;-70
2022/01/15 09:20:34;;;;;;;;;90.00;72.25;;;;;6.91;58.47;102356.16;5065790;28;45812;-64
2022/01/15 09:23:00;;;;;;;;;98.00;83.75;;;;;6.90;58.58;102364.09;5068109;28;45509;-64
2022/01/15 09:25:27;;;;;;;;;93.75;78.25;;;;;6.89;58.91;102354.38;5062651;28;45967;-65
2022/01/15 09:30:37;;;;;;;;;98.50;81.25;;;;;6.89;59.59;102362.34;5073698;28;45480;-64
2022/01/15 09:33:03;;;;;;;;;95.75;78.00;;;;;6.86;59.28;102347.28;5080719;27;45504;-64
2022/01/15 09:35:29;;;;;;;;;97.50;84.75;;;;;6.89;59.43;102355.25;5071348;28;45503;-64
2022/01/15 09:37:56;;;;;;;;;94.00;80.00;;;;;6.84;59.06;102344.59;5072998;28;45956;-64
2022/01/15 09:40:25;;;;;;;;;97.50;82.50;;;;;6.85;59.87;102345.50;5075583;28;45753;-64
2022/01/15 09:42:51;;;;;;;;;92.00;76.25;;;;;6.90;59.24;102361.47;5064744;28;45238;-64
2022/01/15 09:45:21;;;;;;;;;96.00;85.00;;;;;6.96;59.83;102362.41;5066860;27;45627;-64
2022/01/15 09:47:57;;;;;;;;;95.00;84.75;;;;;6.96;59.68;102358.88;5066770;28;45256;-64
2022/01/15 09:50:23;;;;;;;;;94.25;83.25;;;;;6.93;59.66;102338.47;5077987;28;45771;-64
2022/01/15 09:52:49;;;;;;;;;93.00;82.25;;;;;7.05;59.85;102359.84;5075651;28;45313;-65
2022/01/15 09:55:15;;;;;;;;;93.50;82.50;;;;;7.11;59.74;102355.44;5072299;28;45294;-65
2022/01/15 09:57:41;;;;;;;;;95.50;81.50;;;;;7.13;60.19;102354.56;5070883;28;47248;-67
2022/01/15 10:00:11;;;;;;;;;93.00;83.00;;;;;7.17;59.71;102356.38;5068837;27;45583;-66
2022/01/15 10:02:40;;;;;;;;;96.75;88.50;;;;;7.20;59.95;102350.19;5066233;28;45359;-66
2022/01/15 10:05:05;;;;;;;;;96.50;83.25;;;;;7.19;60.31;102332.50;5069218;28;45662;-66
2022/01/15 10:07:31;;;;;;;;;96.00;83.50;;;;;7.19;60.06;102337.81;5066665;27;45482;-66
2022/01/15 10:10:11;;;;;;;;;97.00;85.50;;;;;7.29;60.01;102344.06;5072282;28;45730;-66
2022/01/15 10:12:41;;;;;;;;;97.00;83.75;;;;;7.33;60.04;102343.19;5071802;28;45315;-65
2022/01/15 10:15:07;;;;;;;;;101.75;93.00;;;;;7.36;60.00;102341.44;5064497;28;45625;-65
2022/01/15 10:17:36;;;;;;;;;101.75;95.00;;;;;7.40;59.94;102343.25;5070435;28;46054;-66
2022/01/15 10:20:10;;;;;;;;;95.50;88.50;;;;;7.45;59.91;102343.31;5061541;28;45405;-66
2022/01/15 10:22:45;;;;;;;;;109.25;97.00;;;;;7.48;59.98;102351.25;5072558;28;45302;-66
2022/01/15 10:25:18;;;;;;;;;105.75;98.25;;;;;7.50;60.13;102348.63;5069498;27;45840;-65
2022/01/15 10:27:51;;;;;;;;;112.75;104.25;;;;;7.50;59.96;102340.66;5065155;28;46115;-64
2022/01/15 10:30:18;;;;;;;;;116.50;100.75;;;;;7.52;60.26;102344.22;5075931;28;46094;-64
2022/01/15 10:33:05;;;;;;;;;112.25;104.00;;;;;7.56;60.22;102338.03;5071139;28;45465;-64
2022/01/15 10:35:39;;;;;;;;;117.50;106.00;;;;;7.55;59.78;102323.88;5066894;28;45545;-65
2022/01/15 10:38:17;;;;;;;;;114.00;111.00;;;;;7.61;60.02;102317.69;5072417;27;46373;-64
2022/01/15 10:40:53;;;;;;;;;122.75;111.00;;;;;7.64;59.90;102309.72;5067545;27;45714;-65
2022/01/15 10:43:20;;;;;;;;;120.50;112.25;;;;;7.69;59.91;102309.75;5063523;27;45322;-65
2022/01/15 10:45:54;;;;;;;;;118.25;104.25;;;;;7.73;59.87;102309.75;5071401;27;45399;-64
2022/01/15 10:48:22;;;;;;;;;123.00;110.00;;;;;7.76;59.92;102306.25;5065416;27;45460;-65
2022/01/15 10:50:57;;;;;;;;;117.25;106.50;;;;;7.72;59.87;102300.03;5066433;27;45439;-64
2022/01/15 10:53:36;;;;;;;;;112.50;102.75;;;;;7.76;60.04;102304.47;5065224;27;45426;-64
2022/01/15 10:56:03;;;;;;;;;118.25;107.00;;;;;7.82;59.96;102300.97;5070875;27;45571;-65
2022/01/15 10:58:29;;;;;;;;;114.00;106.50;;;;;7.88;59.61;102305.41;5060127;27;45986;-64
2022/01/15 11:00:54;;;;;;;;;106.50;94.75;;;;;7.89;60.25;102313.38;5061968;27;45535;-64
2022/01/15 11:03:20;;;;;;;;;110.00;102.00;;;;;7.90;59.94;102303.63;5064546;27;45369;-64
2022/01/15 11:05:47;;;;;;;;;117.25;105.75;;;;;7.90;59.78;102300.97;5064469;27;45941;-64
2022/01/15 11:08:26;;;;;;;;;109.75;98.75;;;;;8.00;59.71;102305.44;5067602;27;48053;-63
2022/01/15 11:11:04;;;;;;;;;108.50;102.50;;;;;8.02;59.94;102302.78;5064513;27;45381;-64
2022/01/15 11:13:32;;;;;;;;;113.75;104.00;;;;;8.04;59.50;102301.03;5065555;27;45426;-65
2022/01/15 11:16:04;;;;;;;;;112.00;100.50;;;;;8.06;59.79;102300.16;5070915;27;46441;-65
2022/01/15 11:18:33;;;;;;;;;111.50;103.75;;;;;8.13;59.38;102301.06;5064775;27;45524;-62
2022/01/15 11:21:02;;;;;;;;;115.00;107.25;;;;;8.16;59.41;102293.09;5068775;27;45878;-63
2022/01/15 11:23:29;;;;;;;;;111.75;101.25;;;;;8.16;59.16;102285.97;5066260;27;45898;-65
2022/01/15 11:25:57;;;;;;;;;107.50;95.50;;;;;8.18;59.54;102282.44;5067380;27;45438;-65
2022/01/15 11:28:28;;;;;;;;;111.00;100.50;;;;;8.21;59.51;102282.47;5068011;27;46003;-65
2022/01/15 11:30:57;;;;;;;;;104.50;95.50;;;;;8.22;58.98;102273.56;5069205;27;45506;-64
2022/01/15 11:33:28;;;;;;;;;114.75;102.25;;;;;8.28;59.44;102277.13;5071214;27;45533;-63